Time;durP1;ratioP1;P1;durP2;ratioP2;P2;SDS_P1;SDS_P2;PMS_P1;PMS_P2;Temp;Humidity;BMP_temperature;BMP_pressure;BME280_temperature;BME280_humidity;BME280_pressure;Samples;Min_cycle;Max_cycle;Signal;HPM_P1;HPM_P2
2022/03/09 00:00:50;;;;;;;27.13;11.90;;;;;;;;;;5027499;28;20433;-65
2022/03/09 00:03:16;;;;;;;25.03;12.20;;;;;;;;;;5028621;28;20434;-65
2022/03/09 00:05:43;;;;;;;24.87;12.17;;;;;;;;;;5027615;28;20433;-65
2022/03/09 00:08:10;;;;;;;25.87;12.50;;;;;;;;;;5041210;28;20511;-65
2022/03/09 00:10:36;;;;;;;30.00;12.70;;;;;;;;;;5048266;28;20433;-65
2022/03/09 00:13:06;;;;;;;23.77;11.40;;;;;;;;;;5047440;28;20455;-65
2022/03/09 00:15:33;;;;;;;24.47;11.70;;;;;;;;;;5048720;28;20417;-65
2022/03/09 00:17:59;;;;;;;29.73;12.57;;;;;;;;;;5047674;28;20429;-65
2022/03/09 00:20:26;;;;;;;27.03;12.57;;;;;;;;;;5048476;28;20422;-65
2022/03/09 00:22:53;;;;;;;26.77;13.17;;;;;;;;;;5048427;28;20464;-65
2022/03/09 00:25:20;;;;;;;28.33;13.03;;;;;;;;;;5048161;28;20425;-65
2022/03/09 00:27:46;;;;;;;26.47;12.67;;;;;;;;;;5047888;28;20473;-65
2022/03/09 00:30:13;;;;;;;31.97;13.20;;;;;;;;;;5047228;28;20781;-65
2022/03/09 00:32:40;;;;;;;26.73;12.07;;;;;;;;;;5048438;28;20508;-65
2022/03/09 00:35:07;;;;;;;29.10;13.13;;;;;;;;;;5046920;28;20433;-65
2022/03/09 00:37:34;;;;;;;27.07;12.90;;;;;;;;;;5048156;28;20517;-65
2022/03/09 00:40:01;;;;;;;27.23;12.67;;;;;;;;;;5047886;28;20519;-65
2022/03/09 00:42:27;;;;;;;32.37;14.30;;;;;;;;;;5051687;28;20425;-65
2022/03/09 00:44:54;;;;;;;30.83;14.37;;;;;;;;;;5035511;28;20474;-65
2022/03/09 00:47:21;;;;;;;28.03;13.07;;;;;;;;;;5031971;28;20825;-65
2022/03/09 00:49:47;;;;;;;29.60;13.50;;;;;;;;;;5047865;28;20849;-65
2022/03/09 00:52:14;;;;;;;34.17;13.97;;;;;;;;;;5032336;28;20487;-65
2022/03/09 00:54:41;;;;;;;29.07;13.87;;;;;;;;;;5030921;28;20430;-65
2022/03/09 00:57:07;;;;;;;32.67;14.47;;;;;;;;;;5032744;28;20521;-65
2022/03/09 00:59:34;;;;;;;27.90;13.00;;;;;;;;;;5031833;28;20438;-65
2022/03/09 01:02:00;;;;;;;29.00;13.27;;;;;;;;;;5031797;28;20509;-65
2022/03/09 01:04:27;;;;;;;32.00;13.97;;;;;;;;;;5032274;28;20422;-65
2022/03/09 01:39:34;;;;;;;28.57;12.57;;;;;;;;;;5051311;28;20490;-65
2022/03/09 01:42:01;;;;;;;29.63;13.70;;;;;;;;;;5051500;28;21019;-65
2022/03/09 01:44:28;;;;;;;32.73;13.53;;;;;;;;;;5051459;28;20491;-65
2022/03/09 01:46:55;;;;;;;30.83;14.40;;;;;;;;;;5051268;28;20460;-65
2022/03/09 01:49:22;;;;;;;37.53;14.77;;;;;;;;;;5049513;28;20541;-65
2022/03/09 01:51:49;;;;;;;32.80;14.33;;;;;;;;;;5033312;28;20438;-65
2022/03/09 01:54:15;;;;;;;30.40;14.17;;;;;;;;;;5031664;28;20434;-65
2022/03/09 01:56:42;;;;;;;29.20;13.87;;;;;;;;;;5030857;28;20794;-65
2022/03/09 01:59:10;;;;;;;35.40;14.77;;;;;;;;;;5030068;28;20484;-65
2022/03/09 02:01:37;;;;;;;28.77;13.63;;;;;;;;;;5030906;28;20447;-65
2022/03/09 02:04:04;;;;;;;24.47;12.80;;;;;;;;;;5013400;28;20446;-65
2022/03/09 02:06:31;;;;;;;26.60;13.23;;;;;;;;;;5030861;28;20572;-65
2022/03/09 02:11:44;;;;;;;26.97;12.97;;;;;;;;;;5050821;28;20461;-65
2022/03/09 02:14:25;;;;;;;29.07;13.53;;;;;;;;;;5050898;28;20488;-65
2022/03/09 02:16:52;;;;;;;26.67;13.20;;;;;;;;;;5050541;28;20502;-65
2022/03/09 02:19:19;;;;;;;26.10;12.53;;;;;;;;;;5050670;28;20425;-65
2022/03/09 02:21:46;;;;;;;24.23;11.90;;;;;;;;;;5050568;28;20439;-65
2022/03/09 02:24:12;;;;;;;25.20;12.63;;;;;;;;;;5049367;28;20429;-65
2022/03/09 02:26:39;;;;;;;24.80;12.73;;;;;;;;;;5049315;28;20473;-65
2022/03/09 02:29:05;;;;;;;25.60;12.90;;;;;;;;;;5049465;28;20460;-65
2022/03/09 02:31:32;;;;;;;26.13;13.40;;;;;;;;;;5050431;28;20437;-65
2022/03/09 02:33:59;;;;;;;25.27;12.30;;;;;;;;;;5049138;28;20437;-65
2022/03/09 02:36:25;;;;;;;26.07;11.80;;;;;;;;;;5050284;28;20484;-65
2022/03/09 02:38:52;;;;;;;22.40;11.70;;;;;;;;;;5050943;28;20831;-65
2022/03/09 02:41:18;;;;;;;23.60;12.40;;;;;;;;;;5050164;28;21064;-65
2022/03/09 02:43:45;;;;;;;24.20;11.97;;;;;;;;;;5050400;28;20429;-65
2022/03/09 02:46:12;;;;;;;22.57;11.43;;;;;;;;;;5050126;28;20430;-65
2022/03/09 02:48:38;;;;;;;27.00;12.63;;;;;;;;;;5050235;28;20552;-65
2022/03/09 02:51:05;;;;;;;25.37;12.77;;;;;;;;;;5050077;28;20517;-65
2022/03/09 02:53:32;;;;;;;24.60;12.27;;;;;;;;;;5049040;28;20491;-65
2022/03/09 02:55:58;;;;;;;22.50;11.43;;;;;;;;;;5048767;28;20437;-65
2022/03/09 02:58:26;;;;;;;19.80;11.47;;;;;;;;;;5050152;28;20422;-65
2022/03/09 03:00:53;;;;;;;24.77;12.53;;;;;;;;;;5049660;28;20437;-65
2022/03/09 03:03:19;;;;;;;23.03;12.10;;;;;;;;;;5031959;28;21327;-65
2022/03/09 03:05:48;;;;;;;23.10;11.57;;;;;;;;;;5049915;28;20845;-65
2022/03/09 03:08:14;;;;;;;23.83;11.03;;;;;;;;;;5036296;28;20569;-65
2022/03/09 03:10:43;;;;;;;26.90;12.53;;;;;;;;;;5029545;28;20433;-65
2022/03/09 03:13:10;;;;;;;23.67;11.67;;;;;;;;;;5030088;28;20426;-65
2022/03/09 03:15:37;;;;;;;24.93;11.77;;;;;;;;;;5029534;28;20422;-65
2022/03/09 03:18:05;;;;;;;22.67;11.87;;;;;;;;;;5029806;28;20478;-65
2022/03/09 03:20:31;;;;;;;23.67;12.03;;;;;;;;;;5028710;28;20426;-65
2022/03/09 03:22:58;;;;;;;24.83;11.50;;;;;;;;;;5029524;28;20545;-65
2022/03/09 03:25:24;;;;;;;24.87;12.60;;;;;;;;;;5029539;28;20438;-65
2022/03/09 03:27:51;;;;;;;23.97;12.50;;;;;;;;;;5029489;28;21055;-65
2022/03/09 03:30:18;;;;;;;25.73;12.87;;;;;;;;;;5029400;28;20445;-65
2022/03/09 03:32:44;;;;;;;23.13;11.53;;;;;;;;;;5029529;28;20500;-65
2022/03/09 03:35:11;;;;;;;32.97;13.80;;;;;;;;;;5029396;28;20445;-65
2022/03/09 03:37:39;;;;;;;27.13;14.20;;;;;;;;;;5028037;28;20425;-65
2022/03/09 03:40:06;;;;;;;30.37;14.70;;;;;;;;;;5029269;28;20814;-65
2022/03/09 03:42:33;;;;;;;28.37;13.67;;;;;;;;;;5029203;28;20878;-65
2022/03/09 03:44:59;;;;;;;29.67;13.63;;;;;;;;;;5029154;28;20435;-65
2022/03/09 03:47:26;;;;;;;28.03;13.53;;;;;;;;;;5029052;28;20528;-65
2022/03/09 03:49:54;;;;;;;30.00;13.60;;;;;;;;;;5028127;28;20426;-65
2022/03/09 03:52:21;;;;;;;27.50;13.83;;;;;;;;;;5028822;28;20423;-65
2022/03/09 03:54:48;;;;;;;29.77;14.50;;;;;;;;;;5029211;28;20430;-65
2022/03/09 03:57:14;;;;;;;32.13;15.40;;;;;;;;;;5028971;28;20430;-65
2022/03/09 03:59:41;;;;;;;32.23;14.87;;;;;;;;;;5029063;28;20522;-65
2022/03/09 04:02:08;;;;;;;29.20;14.23;;;;;;;;;;5028640;28;20431;-65
2022/03/09 04:04:35;;;;;;;29.83;13.83;;;;;;;;;;5028885;28;20437;-65
2022/03/09 04:07:01;;;;;;;28.07;13.70;;;;;;;;;;5030306;28;20896;-65
2022/03/09 04:09:28;;;;;;;28.07;13.57;;;;;;;;;;5048704;28;20525;-65
2022/03/09 04:11:54;;;;;;;30.97;14.07;;;;;;;;;;5048794;28;20474;-68
2022/03/09 04:14:22;;;;;;;26.53;12.60;;;;;;;;;;5048558;28;20983;-65
2022/03/09 04:16:49;;;;;;;30.87;13.37;;;;;;;;;;5047845;28;20433;-65
2022/03/09 04:19:16;;;;;;;30.43;14.43;;;;;;;;;;5048626;28;20429;-65
2022/03/09 04:21:42;;;;;;;32.90;14.40;;;;;;;;;;5048295;28;20816;-65
2022/03/09 04:24:09;;;;;;;34.53;13.77;;;;;;;;;;5047512;28;20441;-65
2022/03/09 04:26:35;;;;;;;32.33;14.57;;;;;;;;;;5045085;28;20421;-65
2022/03/09 04:29:05;;;;;;;32.93;14.33;;;;;;;;;;5042146;28;20433;-64
2022/03/09 04:31:32;;;;;;;34.33;14.23;;;;;;;;;;5042574;28;20800;-64
2022/03/09 04:33:59;;;;;;;30.43;13.03;;;;;;;;;;5043260;28;20651;-64
2022/03/09 04:36:26;;;;;;;28.47;13.43;;;;;;;;;;5042474;28;20430;-67
2022/03/09 04:38:53;;;;;;;25.40;12.00;;;;;;;;;;5042780;28;21000;-67
2022/03/09 04:41:20;;;;;;;29.67;13.20;;;;;;;;;;5042089;28;20477;-66
2022/03/09 04:43:46;;;;;;;30.77;14.17;;;;;;;;;;5025312;28;20526;-67
2022/03/09 04:46:14;;;;;;;30.00;13.60;;;;;;;;;;5042466;28;21014;-67
2022/03/09 04:48:41;;;;;;;30.17;13.53;;;;;;;;;;5041511;28;20472;-66
2022/03/09 04:51:08;;;;;;;34.40;14.17;;;;;;;;;;5042541;28;20426;-66
2022/03/09 04:53:35;;;;;;;29.10;13.10;;;;;;;;;;5041520;28;20524;-66
2022/03/09 04:56:02;;;;;;;29.63;13.73;;;;;;;;;;5023708;28;20449;-66
2022/03/09 04:58:29;;;;;;;30.23;14.57;;;;;;;;;;5042467;28;20884;-68
2022/03/09 05:00:56;;;;;;;29.97;13.13;;;;;;;;;;5039668;28;20434;-66
2022/03/09 05:03:23;;;;;;;30.37;13.60;;;;;;;;;;5042088;28;20444;-68
2022/03/09 05:05:50;;;;;;;35.17;14.47;;;;;;;;;;5042384;28;20425;-66
2022/03/09 05:08:17;;;;;;;31.83;14.37;;;;;;;;;;5041645;28;20508;-67
2022/03/09 05:10:43;;;;;;;30.13;13.40;;;;;;;;;;5042255;28;20429;-67
2022/03/09 05:13:10;;;;;;;34.13;14.70;;;;;;;;;;5040237;28;20843;-65
2022/03/09 05:15:37;;;;;;;31.47;13.50;;;;;;;;;;5042431;28;20437;-65
2022/03/09 05:18:03;;;;;;;33.30;13.80;;;;;;;;;;5043443;28;20525;-66
2022/03/09 05:20:30;;;;;;;30.47;13.13;;;;;;;;;;5043284;28;20432;-66
2022/03/09 05:22:57;;;;;;;32.00;14.63;;;;;;;;;;5043393;28;21158;-67
2022/03/09 05:25:23;;;;;;;32.77;13.80;;;;;;;;;;5040823;28;20433;-66
2022/03/09 05:27:50;;;;;;;35.27;13.80;;;;;;;;;;5044555;28;20923;-66
2022/03/09 05:30:17;;;;;;;31.17;14.80;;;;;;;;;;5046693;28;20433;-66
2022/03/09 05:32:43;;;;;;;30.73;13.73;;;;;;;;;;5046210;28;20491;-66
2022/03/09 05:35:10;;;;;;;31.80;14.47;;;;;;;;;;5043607;28;20564;-68
2022/03/09 05:37:40;;;;;;;32.07;14.20;;;;;;;;;;5028910;28;20479;-67
2022/03/09 05:40:08;;;;;;;33.90;13.93;;;;;;;;;;5045081;28;20514;-67
2022/03/09 05:42:35;;;;;;;36.43;14.97;;;;;;;;;;5045897;28;20468;-68
2022/03/09 05:45:02;;;;;;;32.00;14.30;;;;;;;;;;5043535;28;20439;-66
2022/03/09 05:47:46;;;;;;;36.70;15.37;;;;;;;;;;5045119;28;20583;-66
2022/03/09 05:50:13;;;;;;;32.33;13.67;;;;;;;;;;5044941;28;20498;-65
2022/03/09 05:52:42;;;;;;;33.37;15.73;;;;;;;;;;5040730;28;20453;-67
2022/03/09 05:55:09;;;;;;;37.53;17.40;;;;;;;;;;5031755;28;20430;-67
2022/03/09 05:57:36;;;;;;;39.77;17.63;;;;;;;;;;5029999;28;20434;-67
2022/03/09 06:00:03;;;;;;;42.40;18.83;;;;;;;;;;5031395;28;20427;-67
2022/03/09 06:02:36;;;;;;;43.80;19.13;;;;;;;;;;5031687;28;21007;-67
2022/03/09 06:05:03;;;;;;;45.73;20.57;;;;;;;;;;5031211;28;20466;-67
2022/03/09 06:07:31;;;;;;;51.17;22.07;;;;;;;;;;5038178;28;20491;-67
2022/03/09 06:09:58;;;;;;;38.73;19.17;;;;;;;;;;5046555;28;21288;-67
2022/03/09 06:12:25;;;;;;;42.67;19.47;;;;;;;;;;5038036;28;20498;-67
2022/03/09 06:14:52;;;;;;;35.20;16.77;;;;;;;;;;5062859;28;20426;-67
2022/03/09 06:17:18;;;;;;;30.50;14.60;;;;;;;;;;5049748;28;20436;-67
2022/03/09 06:19:45;;;;;;;31.37;14.40;;;;;;;;;;5049702;28;20434;-68
2022/03/09 06:22:13;;;;;;;29.10;14.40;;;;;;;;;;5057986;28;20425;-68
2022/03/09 06:24:40;;;;;;;30.10;13.83;;;;;;;;;;5044115;28;20436;-67
2022/03/09 06:27:06;;;;;;;23.67;13.13;;;;;;;;;;5070694;28;20428;-68
2022/03/09 06:29:33;;;;;;;25.90;13.40;;;;;;;;;;5057390;28;20429;-67
2022/03/09 06:32:00;;;;;;;29.10;13.90;;;;;;;;;;5054002;28;20929;-67
2022/03/09 06:34:27;;;;;;;27.60;13.00;;;;;;;;;;5069279;28;20517;-67
2022/03/09 06:36:55;;;;;;;27.13;14.00;;;;;;;;;;5070750;28;20424;-68
2022/03/09 06:39:22;;;;;;;29.53;14.67;;;;;;;;;;5054021;28;20534;-67
2022/03/09 06:41:48;;;;;;;26.37;15.07;;;;;;;;;;5049601;28;20429;-67
2022/03/09 06:44:15;;;;;;;25.13;13.43;;;;;;;;;;5050037;28;20433;-67
2022/03/09 06:46:42;;;;;;;29.87;13.87;;;;;;;;;;5050027;28;20437;-67
2022/03/09 06:49:09;;;;;;;26.00;12.87;;;;;;;;;;5048816;28;20599;-67
2022/03/09 06:51:35;;;;;;;23.97;11.80;;;;;;;;;;5050414;28;20841;-67
2022/03/09 06:54:02;;;;;;;26.23;12.43;;;;;;;;;;5050212;28;20461;-67
2022/03/09 06:56:29;;;;;;;25.80;13.47;;;;;;;;;;5050372;28;20456;-67
2022/03/09 06:58:56;;;;;;;25.23;13.00;;;;;;;;;;5046191;28;20437;-64
2022/03/09 07:01:22;;;;;;;30.40;13.43;;;;;;;;;;5043580;28;20433;-66
2022/03/09 07:03:49;;;;;;;24.80;11.93;;;;;;;;;;5042815;28;20453;-66
2022/03/09 07:06:16;;;;;;;26.57;12.73;;;;;;;;;;5043844;28;20432;-66
2022/03/09 07:08:43;;;;;;;24.87;12.50;;;;;;;;;;5042517;28;20464;-66
2022/03/09 07:11:09;;;;;;;24.63;12.30;;;;;;;;;;5045047;28;20437;-67
2022/03/09 07:13:36;;;;;;;21.97;12.20;;;;;;;;;;5044064;28;20448;-67
2022/03/09 07:16:03;;;;;;;23.10;12.20;;;;;;;;;;5042107;28;20433;-67
2022/03/09 07:18:31;;;;;;;22.43;12.30;;;;;;;;;;5043280;28;20449;-67
2022/03/09 07:20:58;;;;;;;24.83;14.90;;;;;;;;;;5044790;28;20429;-67
2022/03/09 07:23:24;;;;;;;22.00;12.67;;;;;;;;;;5042847;28;20222;-67
2022/03/09 07:25:54;;;;;;;17.60;11.40;;;;;;;;;;5044123;28;20187;-65
2022/03/09 07:28:21;;;;;;;17.63;10.80;;;;;;;;;;5042832;28;20778;-66
2022/03/09 07:30:48;;;;;;;17.60;11.00;;;;;;;;;;5042178;28;20197;-66
2022/03/09 07:33:16;;;;;;;16.60;9.80;;;;;;;;;;5042142;28;20633;-69
2022/03/09 07:35:45;;;;;;;14.63;9.77;;;;;;;;;;5058899;28;20185;-67
2022/03/09 07:38:13;;;;;;;14.90;10.80;;;;;;;;;;5042155;28;20306;-68
2022/03/09 07:40:40;;;;;;;16.60;11.00;;;;;;;;;;5040974;28;20262;-66
2022/03/09 07:43:07;;;;;;;13.77;9.77;;;;;;;;;;5042441;28;20203;-67
2022/03/09 07:45:34;;;;;;;15.83;10.60;;;;;;;;;;5042415;28;20683;-68
2022/03/09 07:48:00;;;;;;;14.17;9.90;;;;;;;;;;5025528;28;20325;-68
2022/03/09 07:50:27;;;;;;;16.30;11.00;;;;;;;;;;5043341;28;20218;-66
2022/03/09 07:52:54;;;;;;;14.70;10.13;;;;;;;;;;5042854;28;20194;-67
2022/03/09 07:55:21;;;;;;;14.77;10.13;;;;;;;;;;5041625;28;20222;-68
2022/03/09 07:57:52;;;;;;;13.93;10.03;;;;;;;;;;5042708;28;20692;-68
2022/03/09 08:00:19;;;;;;;13.93;9.83;;;;;;;;;;5043526;28;20198;-69
2022/03/09 08:02:46;;;;;;;14.63;10.50;;;;;;;;;;5043332;28;20210;-69
2022/03/09 08:05:13;;;;;;;14.97;10.27;;;;;;;;;;5042833;28;20230;-65
2022/03/09 08:07:39;;;;;;;17.27;11.17;;;;;;;;;;5043745;28;20191;-66
2022/03/09 08:10:09;;;;;;;15.27;10.30;;;;;;;;;;5058947;28;20610;-66
2022/03/09 08:12:36;;;;;;;15.90;10.23;;;;;;;;;;5040842;28;20207;-66
2022/03/09 08:15:03;;;;;;;18.47;10.83;;;;;;;;;;5043072;28;20217;-67
2022/03/09 08:17:30;;;;;;;16.53;11.20;;;;;;;;;;5042013;28;20673;-68
2022/03/09 08:19:57;;;;;;;13.77;10.10;;;;;;;;;;5025617;28;20197;-68
2022/03/09 08:22:24;;;;;;;15.20;9.47;;;;;;;;;;5025041;28;20637;-64
2022/03/09 08:24:51;;;;;;;14.63;9.60;;;;;;;;;;5043440;28;20198;-67
2022/03/09 08:27:17;;;;;;;14.77;9.20;;;;;;;;;;5043218;28;20717;-65
2022/03/09 08:29:44;;;;;;;12.40;8.57;;;;;;;;;;5025087;28;20234;-65
2022/03/09 08:32:14;;;;;;;13.50;7.90;;;;;;;;;;5041913;28;20230;-66
2022/03/09 08:34:40;;;;;;;11.70;8.33;;;;;;;;;;5041234;28;20274;-67
2022/03/09 08:37:07;;;;;;;15.60;8.73;;;;;;;;;;5041062;28;20218;-67
2022/03/09 08:39:34;;;;;;;15.33;8.67;;;;;;;;;;5042545;28;20233;-67
2022/03/09 08:42:01;;;;;;;11.37;7.93;;;;;;;;;;5042277;28;20193;-66
2022/03/09 08:44:39;;;;;;;11.97;6.70;;;;;;;;;;5042559;28;20187;-66
2022/03/09 08:47:06;;;;;;;12.13;7.83;;;;;;;;;;5041873;28;20672;-67
2022/03/09 08:49:33;;;;;;;11.37;6.73;;;;;;;;;;5023624;28;20313;-66
2022/03/09 08:52:00;;;;;;;10.33;6.37;;;;;;;;;;5041033;28;20213;-67
2022/03/09 08:54:27;;;;;;;11.97;7.63;;;;;;;;;;5040851;28;20205;-68
2022/03/09 08:56:54;;;;;;;11.60;6.87;;;;;;;;;;5042225;28;20218;-66
2022/03/09 08:59:21;;;;;;;11.60;7.10;;;;;;;;;;5041889;28;20191;-66
2022/03/09 09:01:48;;;;;;;14.30;7.07;;;;;;;;;;5042087;28;20193;-66
2022/03/09 09:04:20;;;;;;;11.93;7.50;;;;;;;;;;5044701;28;20187;-65
2022/03/09 09:06:47;;;;;;;10.60;7.13;;;;;;;;;;5045573;28;20202;-66
2022/03/09 09:09:14;;;;;;;13.33;6.63;;;;;;;;;;5044768;28;20234;-66
2022/03/09 09:11:41;;;;;;;9.83;5.90;;;;;;;;;;5046520;28;20266;-66
2022/03/09 09:14:08;;;;;;;11.30;6.27;;;;;;;;;;5045760;28;20596;-66
2022/03/09 09:16:35;;;;;;;12.60;5.50;;;;;;;;;;5046368;28;20182;-66
2022/03/09 09:19:02;;;;;;;9.07;5.53;;;;;;;;;;5044876;28;20194;-67
2022/03/09 09:21:33;;;;;;;10.40;6.47;;;;;;;;;;5046103;28;20551;-67
2022/03/09 09:24:03;;;;;;;13.43;6.17;;;;;;;;;;5027182;28;20186;-66
2022/03/09 09:26:30;;;;;;;12.27;6.37;;;;;;;;;;5047001;28;20274;-66
2022/03/09 09:29:15;;;;;;;9.37;5.77;;;;;;;;;;5046130;28;20622;-65
2022/03/09 09:31:44;;;;;;;11.13;6.27;;;;;;;;;;5044229;28;20201;-66
2022/03/09 09:34:11;;;;;;;10.37;5.70;;;;;;;;;;5046728;28;20183;-68
2022/03/09 09:36:41;;;;;;;8.93;5.30;;;;;;;;;;5046402;28;20186;-68
2022/03/09 09:39:09;;;;;;;9.77;5.87;;;;;;;;;;5045016;28;20202;-69
2022/03/09 09:41:36;;;;;;;13.07;7.17;;;;;;;;;;5047083;28;20756;-68
2022/03/09 09:44:03;;;;;;;11.00;6.73;;;;;;;;;;5043087;28;20202;-60
2022/03/09 09:46:30;;;;;;;10.30;6.47;;;;;;;;;;5046141;28;20195;-59
2022/03/09 09:48:57;;;;;;;12.47;6.50;;;;;;;;;;5046153;28;20230;-61
2022/03/09 09:51:23;;;;;;;11.50;6.80;;;;;;;;;;5046213;28;20191;-59
2022/03/09 09:53:50;;;;;;;14.03;6.40;;;;;;;;;;5045393;28;20191;-60
2022/03/09 09:56:17;;;;;;;12.90;6.50;;;;;;;;;;5044650;28;20190;-62
2022/03/09 09:58:44;;;;;;;12.07;6.30;;;;;;;;;;5045944;28;20206;-62
2022/03/09 10:01:10;;;;;;;10.57;6.40;;;;;;;;;;5045827;28;20198;-64
2022/03/09 10:03:37;;;;;;;12.50;6.60;;;;;;;;;;5040333;28;20187;-63
2022/03/09 10:06:04;;;;;;;12.37;7.00;;;;;;;;;;5043590;28;20189;-64
2022/03/09 10:08:35;;;;;;;11.40;6.60;;;;;;;;;;5043071;28;20257;-72
2022/03/09 10:11:02;;;;;;;11.90;6.40;;;;;;;;;;5045605;28;20786;-71
2022/03/09 10:13:30;;;;;;;10.57;6.30;;;;;;;;;;5042437;28;20206;-72
2022/03/09 10:16:11;;;;;;;11.90;6.43;;;;;;;;;;5043068;28;20205;-69
2022/03/09 10:18:38;;;;;;;8.37;4.47;;;;;;;;;;5043549;28;20309;-70
2022/03/09 10:21:12;;;;;;;8.30;3.80;;;;;;;;;;5043181;28;20183;-68
2022/03/09 10:23:58;;;;;;;10.50;6.00;;;;;;;;;;5039623;28;20183;-66
2022/03/09 10:26:30;;;;;;;7.73;4.60;;;;;;;;;;5060468;28;20194;-73
2022/03/09 10:28:59;;;;;;;6.47;2.20;;;;;;;;;;5027776;28;20218;-69
2022/03/09 10:31:36;;;;;;;7.33;2.50;;;;;;;;;;5045360;28;20245;-68
2022/03/09 10:34:13;;;;;;;4.77;1.83;;;;;;;;;;5025553;28;20233;-67
2022/03/09 10:36:56;;;;;;;7.50;2.10;;;;;;;;;;5044534;28;20240;-68
2022/03/09 10:39:28;;;;;;;4.83;2.00;;;;;;;;;;5044726;28;20280;-74
2022/03/09 10:41:58;;;;;;;4.60;1.57;;;;;;;;;;5043921;28;20195;-67
2022/03/09 10:44:45;;;;;;;5.47;2.13;;;;;;;;;;5044674;28;20205;-68
2022/03/09 10:47:27;;;;;;;5.27;1.90;;;;;;;;;;5044673;28;20216;-71
2022/03/09 10:50:06;;;;;;;5.10;1.93;;;;;;;;;;5039443;28;20301;-65
2022/03/09 10:52:42;;;;;;;5.07;2.20;;;;;;;;;;5043160;28;20685;-66
2022/03/09 10:55:22;;;;;;;4.37;1.53;;;;;;;;;;5044032;28;20190;-66
2022/03/09 10:57:49;;;;;;;4.80;1.97;;;;;;;;;;5043623;28;20433;-66
2022/03/09 11:00:18;;;;;;;5.00;1.90;;;;;;;;;;5044518;28;20267;-66
2022/03/09 11:02:49;;;;;;;4.70;1.60;;;;;;;;;;5042991;28;20286;-66
2022/03/09 11:05:20;;;;;;;4.53;2.10;;;;;;;;;;5042977;28;20948;-72
2022/03/09 11:07:47;;;;;;;4.17;1.90;;;;;;;;;;5043484;28;20211;-67
2022/03/09 11:10:14;;;;;;;4.80;2.57;;;;;;;;;;5043302;28;20221;-65
2022/03/09 11:12:42;;;;;;;6.43;2.80;;;;;;;;;;5043524;28;20298;-73
2022/03/09 11:15:09;;;;;;;8.77;3.40;;;;;;;;;;5044966;28;20207;-66
2022/03/09 11:17:36;;;;;;;7.37;2.97;;;;;;;;;;5043599;28;20269;-70
2022/03/09 11:20:04;;;;;;;5.93;2.97;;;;;;;;;;5042235;28;20678;-68
2022/03/09 11:22:31;;;;;;;7.87;3.17;;;;;;;;;;5044948;28;20191;-65
2022/03/09 11:24:58;;;;;;;8.30;2.57;;;;;;;;;;5042350;28;20183;-69
2022/03/09 11:27:25;;;;;;;6.70;2.80;;;;;;;;;;5042934;28;20851;-71
2022/03/09 11:29:54;;;;;;;7.53;2.97;;;;;;;;;;5043699;28;20241;-68
2022/03/09 11:32:34;;;;;;;5.80;3.13;;;;;;;;;;5043989;28;20301;-67
2022/03/09 11:35:01;;;;;;;8.30;3.60;;;;;;;;;;5042592;28;20645;-64
2022/03/09 11:37:38;;;;;;;7.10;3.53;;;;;;;;;;5038131;28;20183;-67
2022/03/09 11:40:08;;;;;;;9.57;3.50;;;;;;;;;;5042489;28;20226;-67
2022/03/09 11:42:38;;;;;;;10.13;3.70;;;;;;;;;;5041638;28;20661;-68
2022/03/09 11:45:15;;;;;;;7.30;3.37;;;;;;;;;;5042676;28;20828;-65
2022/03/09 11:48:11;;;;;;;9.30;3.63;;;;;;;;;;5041507;28;20221;-67
2022/03/09 11:50:46;;;;;;;6.73;3.53;;;;;;;;;;5038245;28;20895;-66
2022/03/09 11:53:13;;;;;;;5.83;2.60;;;;;;;;;;5041217;28;20514;-65
2022/03/09 11:55:40;;;;;;;5.03;2.00;;;;;;;;;;5043509;28;20257;-65
2022/03/09 11:58:13;;;;;;;7.50;1.87;;;;;;;;;;5043486;28;20208;-71
2022/03/09 12:01:01;;;;;;;3.53;1.70;;;;;;;;;;5042585;28;20194;-67
2022/03/09 12:03:37;;;;;;;4.67;1.60;;;;;;;;;;5042289;28;20979;-65
2022/03/09 12:06:04;;;;;;;5.47;1.63;;;;;;;;;;5042993;28;20281;-65
2022/03/09 12:08:44;;;;;;;5.47;1.40;;;;;;;;;;5026235;28;20195;-65
2022/03/09 12:11:11;;;;;;;4.33;1.60;;;;;;;;;;5042219;28;20206;-65
2022/03/09 12:13:41;;;;;;;6.10;1.60;;;;;;;;;;5049836;28;20187;-68
2022/03/09 12:16:12;;;;;;;4.77;1.70;;;;;;;;;;5046262;28;20199;-67
2022/03/09 12:18:43;;;;;;;8.67;1.70;;;;;;;;;;5046908;28;20187;-67
2022/03/09 12:21:20;;;;;;;4.60;1.80;;;;;;;;;;5047158;28;20199;-65
2022/03/09 12:24:05;;;;;;;4.97;2.23;;;;;;;;;;5062809;28;20193;-66
2022/03/09 12:26:42;;;;;;;7.87;2.03;;;;;;;;;;5045850;28;20306;-67
2022/03/09 12:29:35;;;;;;;6.17;1.70;;;;;;;;;;5046182;28;20260;-65
2022/03/09 12:32:02;;;;;;;6.63;1.70;;;;;;;;;;5044757;28;20234;-66
2022/03/09 12:34:30;;;;;;;4.00;1.50;;;;;;;;;;5041771;28;20187;-66
2022/03/09 12:36:57;;;;;;;5.70;1.70;;;;;;;;;;5035016;28;20273;-70
2022/03/09 12:39:24;;;;;;;18.27;3.63;;;;;;;;;;5043570;28;20234;-69
2022/03/09 12:41:51;;;;;;;5.20;1.83;;;;;;;;;;5045367;28;20201;-67
2022/03/09 12:44:19;;;;;;;5.90;1.83;;;;;;;;;;5044246;28;20190;-65
2022/03/09 12:46:46;;;;;;;13.20;3.30;;;;;;;;;;5041881;28;20183;-65
2022/03/09 12:49:15;;;;;;;11.77;2.87;;;;;;;;;;5042783;28;20207;-66
2022/03/09 12:51:50;;;;;;;8.37;2.40;;;;;;;;;;5041991;28;20260;-66
2022/03/09 12:54:41;;;;;;;5.87;2.17;;;;;;;;;;5028162;28;20731;-68
2022/03/09 12:57:18;;;;;;;5.07;2.03;;;;;;;;;;5041660;28;20932;-67
2022/03/09 12:59:54;;;;;;;3.10;1.53;;;;;;;;;;5040842;28;20278;-67
2022/03/09 13:02:25;;;;;;;5.87;2.13;;;;;;;;;;5047139;28;20194;-70
2022/03/09 13:04:58;;;;;;;7.43;2.50;;;;;;;;;;5048418;28;20796;-70
2022/03/09 13:07:25;;;;;;;4.23;2.10;;;;;;;;;;5039430;28;20187;-66
2022/03/09 13:10:03;;;;;;;6.07;2.30;;;;;;;;;;5040764;28;20223;-70
2022/03/09 13:12:31;;;;;;;6.47;2.40;;;;;;;;;;5041542;28;20195;-68
2022/03/09 13:14:58;;;;;;;7.67;3.00;;;;;;;;;;5023708;28;20289;-66
2022/03/09 13:17:25;;;;;;;8.33;2.40;;;;;;;;;;5040215;28;20318;-65
2022/03/09 13:19:53;;;;;;;7.70;2.40;;;;;;;;;;5039678;28;20189;-65
2022/03/09 13:22:39;;;;;;;9.53;3.00;;;;;;;;;;5026539;28;20702;-64
2022/03/09 13:25:10;;;;;;;22.07;4.07;;;;;;;;;;5040651;28;20285;-64
2022/03/09 13:27:37;;;;;;;12.33;2.80;;;;;;;;;;5041089;28;20697;-64
2022/03/09 13:30:18;;;;;;;7.33;2.80;;;;;;;;;;5041300;28;20698;-66
2022/03/09 13:32:46;;;;;;;7.87;2.77;;;;;;;;;;5040179;28;20840;-66
2022/03/09 13:35:19;;;;;;;7.13;2.50;;;;;;;;;;5040690;28;20233;-67
2022/03/09 13:37:46;;;;;;;9.23;2.73;;;;;;;;;;5041499;28;20201;-66
2022/03/09 13:40:13;;;;;;;6.67;2.50;;;;;;;;;;5042030;28;20253;-66
2022/03/09 13:42:44;;;;;;;6.10;2.10;;;;;;;;;;5038360;28;20187;-61
2022/03/09 13:45:15;;;;;;;4.93;2.10;;;;;;;;;;5040904;28;20202;-66
2022/03/09 13:47:46;;;;;;;6.30;2.10;;;;;;;;;;5041666;28;20240;-66
2022/03/09 13:50:19;;;;;;;9.83;2.50;;;;;;;;;;5044001;28;20237;-64
2022/03/09 13:52:46;;;;;;;6.30;2.10;;;;;;;;;;5043776;28;20217;-67
2022/03/09 13:55:21;;;;;;;8.83;2.20;;;;;;;;;;5031320;28;20191;-67
2022/03/09 13:57:57;;;;;;;5.53;2.10;;;;;;;;;;5030351;28;20270;-67
2022/03/09 14:00:24;;;;;;;3.77;1.53;;;;;;;;;;5029731;28;20195;-67
2022/03/09 14:02:55;;;;;;;7.87;1.60;;;;;;;;;;5031401;28;20194;-67
2022/03/09 14:05:32;;;;;;;3.13;1.43;;;;;;;;;;5030848;28;20264;-67
2022/03/09 14:07:59;;;;;;;14.83;1.80;;;;;;;;;;5040815;28;20531;-67
2022/03/09 14:10:26;;;;;;;4.13;1.30;;;;;;;;;;5033185;28;20226;-67
2022/03/09 14:12:54;;;;;;;4.20;1.40;;;;;;;;;;5050918;28;20191;-67
2022/03/09 14:15:21;;;;;;;6.30;1.70;;;;;;;;;;5050269;28;20248;-67
2022/03/09 14:17:49;;;;;;;7.60;4.07;;;;;;;;;;5049812;28;20547;-67
2022/03/09 14:20:16;;;;;;;4.90;1.77;;;;;;;;;;5049625;28;20286;-67
2022/03/09 14:22:43;;;;;;;5.27;1.70;;;;;;;;;;5050438;28;20201;-66
2022/03/09 14:25:13;;;;;;;4.83;1.40;;;;;;;;;;5030536;28;20195;-72
2022/03/09 14:27:40;;;;;;;6.43;2.30;;;;;;;;;;5033654;28;20195;-66
2022/03/09 14:30:08;;;;;;;4.67;1.50;;;;;;;;;;5030827;28;20223;-66
2022/03/09 14:32:35;;;;;;;5.87;1.70;;;;;;;;;;5029717;28;20610;-67
2022/03/09 14:35:02;;;;;;;7.50;1.90;;;;;;;;;;5030467;28;20198;-67
2022/03/09 14:37:29;;;;;;;5.10;1.43;;;;;;;;;;5029049;28;20192;-67
2022/03/09 14:39:57;;;;;;;7.60;2.23;;;;;;;;;;5030370;28;20310;-67
2022/03/09 14:42:23;;;;;;;14.47;6.47;;;;;;;;;;5030228;28;20191;-67
2022/03/09 14:44:50;;;;;;;30.27;16.07;;;;;;;;;;5029442;28;20203;-67
2022/03/09 14:47:17;;;;;;;5.03;1.97;;;;;;;;;;5035976;28;20194;-67
2022/03/09 14:49:45;;;;;;;5.10;2.30;;;;;;;;;;5027121;28;20309;-67
2022/03/09 14:52:14;;;;;;;7.13;1.83;;;;;;;;;;5043389;28;20632;-67
2022/03/09 14:54:41;;;;;;;4.50;1.90;;;;;;;;;;5044093;28;20199;-67
2022/03/09 14:57:10;;;;;;;4.97;1.70;;;;;;;;;;5041908;28;20296;-67
2022/03/09 14:59:37;;;;;;;7.53;2.00;;;;;;;;;;5044494;28;20762;-67
2022/03/09 15:02:03;;;;;;;5.77;1.90;;;;;;;;;;5042971;28;20217;-68
2022/03/09 15:04:32;;;;;;;8.07;1.63;;;;;;;;;;5044428;28;20617;-67
2022/03/09 15:06:58;;;;;;;6.07;2.33;;;;;;;;;;5026318;28;20281;-68
2022/03/09 15:09:25;;;;;;;4.97;1.73;;;;;;;;;;5042496;28;20195;-66